Flight Track Log - Related Links

Times and Time Zones

All times are in EDT time to prevent confusion due to time zone crossing. See the N405TM flight status page for this flight to view local times or setup timezone preferences in your user account.

Time Position Orientation Groundspeed Altitude Reporting Facility
EDT Latitude Longitude Course Direction KTS MPH feet Rate Location/Type
Tue 06:08:15 PM 46.5997 -111.7625 300° West  Level FlightAware Approximate
Tue 06:09:15 PM 46.5943 -111.5843 287° West  Level FlightAware Approximate
Tue 06:10:15 PM 46.5834 -111.4077 283° West  Level FlightAware Approximate
Tue 06:11:15 PM 46.5833 -111.2293 280° West  Level FlightAware Approximate
Tue 06:12:15 PM 46.5671 -111.0531 280° West  Level FlightAware Approximate
Tue 06:13:01 PM 46.6658 -111.9278 93° East 283 326 11,100  Level Salt Lake Center
Tue 06:14:03 PM 46.6619 -111.8114 93° East 290 334 13,400 2,371 Climbing Salt Lake Center
Tue 06:15:05 PM 46.6572 -111.6808 93° East 308 354 16,000 2,537 Climbing Salt Lake Center
Tue 06:16:06 PM 46.6531 -111.5447 93° East 327 376 18,600 2,634 Climbing Salt Lake Center
Tue 06:17:08 PM 46.6469 -111.3778 93° East 340 391 21,400 2,468 Climbing Salt Lake Center
Tue 06:18:10 PM 46.6417 -111.2369 93° East 346 398 23,700 2,098 Climbing Salt Lake Center
Tue 06:19:11 PM 46.6367 -111.0908 94° East 354 407 25,700 1,805 Climbing Salt Lake Center
Tue 06:20:13 PM 46.6292 -110.9361 93° East 376 433 27,400 1,610 Climbing Salt Lake Center
Tue 06:21:14 PM 46.6225 -110.7722 93° East 397 457 29,000 1,561 Climbing Salt Lake Center
Tue 06:22:16 PM 46.6161 -110.6117 94° East 400 460 30,600 1,645 Climbing Salt Lake Center
Tue 06:23:18 PM 46.6078 -110.4281 93° East 396 456 32,400 1,645 Climbing Salt Lake Center
Tue 06:24:20 PM 46.6017 -110.2731 94° East 398 458 34,000 1,463 Climbing Salt Lake Center
Tue 06:25:21 PM 46.5933 -110.0936 95° East 399 459 35,400 1,073 Climbing Salt Lake Center
Tue 06:26:23 PM 46.5847 -109.9411 94° East 398 458 36,200 774 Climbing Salt Lake Center
Tue 06:27:25 PM 46.5764 -109.7556 94° East 406 467 37,000 780 Climbing Salt Lake Center
Tue 06:28:26 PM 46.5678 -109.5961 94° East 411 473 37,800 683 Climbing Salt Lake Center
Tue 06:29:28 PM 46.5594 -109.4356 94° East 413 475 38,400 532 Climbing Salt Lake Center
Tue 06:30:30 PM 46.5503 -109.2436 95° East 422 486 38,900 293 Climbing Salt Lake Center
Tue 06:31:31 PM 46.5406 -109.0758 95° East 430 495 39,000 49 Climbing Salt Lake Center
Tue 06:32:33 PM 46.5286 -108.8714 95° East 450 518 39,000  Level Salt Lake Center
Tue 06:33:35 PM 46.5183 -108.6928 95° East 460 529 39,000  Level Salt Lake Center
Tue 06:34:36 PM 46.5072 -108.5103 95° East 469 540 39,000  Level Salt Lake Center
Tue 06:35:38 PM 46.4944 -108.3019 96° East 466 536 39,000  Level Salt Lake Center
Tue 06:36:40 PM 46.4822 -108.1228 95° East 466 536 39,000  Level Salt Lake Center
Tue 06:37:41 PM 46.4683 -107.9136 95° East 466 536 39,000  Level Salt Lake Center
Tue 06:38:43 PM 46.4564 -107.7339 96° East 467 537 39,000  Level Salt Lake Center
Tue 06:39:45 PM 46.4414 -107.5261 95° East 465 535 39,000  Level Salt Lake Center
Tue 06:40:46 PM 46.4300 -107.3478 96° East 464 534 39,000  Level Salt Lake Center
Tue 06:41:48 PM 46.4175 -107.1686 96° East 465 535 39,000  Level Salt Lake Center
Tue 06:42:50 PM 46.4019 -106.9583 96° East 468 539 39,000  Level Salt Lake Center
Tue 06:43:51 PM 46.3881 -106.7772 97° East 470 541 39,000  Level Salt Lake Center
Tue 06:44:53 PM 46.3708 -106.5672 96° East 470 541 39,000  Level Salt Lake Center
Tue 06:45:54 PM 46.3569 -106.3886 97° East 469 540 39,000  Level Salt Lake Center
Tue 06:46:56 PM 46.3422 -106.2108 97° East 466 536 39,000  Level Salt Lake Center
Tue 06:47:58 PM 46.3244 -106.0025 97° East 466 536 39,000  Level Salt Lake Center
Tue 06:48:59 PM 46.3086 -105.8242 97° East 466 536 39,000  Level Salt Lake Center
Tue 06:50:01 PM 46.2903 -105.6150 97° East 468 539 39,000  Level Salt Lake Center
Tue 06:51:03 PM 46.2747 -105.4372 98° East 468 539 39,000  Level Salt Lake Center
Tue 06:52:04 PM 46.2547 -105.2275 97° East 468 539 39,000 49 Level Salt Lake Center
Tue 06:53:06 PM 46.2394 -105.0514 98° East 466 536 39,100 48 Climbing Salt Lake Center
Tue 06:54:08 PM 46.2225 -104.8733 98° East 467 537 39,100 341 Level Salt Lake Center
Tue 06:55:09 PM 46.2031 -104.6667 98° East 466 536 39,800 634 Climbing Salt Lake Center
Tue 06:56:11 PM 46.1853 -104.4908 98° East 464 534 40,400 581 Climbing Salt Lake Center
Tue 06:57:13 PM 46.1669 -104.3069 98° East 460 529 41,000 290 Climbing Salt Lake Center
Tue 06:58:15 PM 46.1492 -104.1283 98° East 456 525 41,000  Level Salt Lake Center
Tue 06:59:16 PM 46.1314 -103.9450 98° East 459 528 41,000  Level Salt Lake Center
Tue 07:00:18 PM 46.1122 -103.7600 98° East 465 535 41,000  Level Salt Lake Center
Tue 07:01:20 PM 46.0892 -103.5394 99° East 467 537 41,000  Level Salt Lake Center
Tue 07:02:22 PM 46.0692 -103.3583 99° East 465 535 41,000  Level Salt Lake Center
Tue 07:03:24 PM 46.0472 -103.1614 110° East 463 533 41,000  Level Salt Lake Center
Tue 07:04:26 PM 46.0056 -103.0008 112° Southeast 472 543 41,000  Level Salt Lake Center
Tue 07:05:27 PM 45.9581 -102.8317 111° Southeast 465 535 41,000  Level Salt Lake Center
Tue 07:06:29 PM 45.9103 -102.6569 111° Southeast 469 540 41,000  Level Salt Lake Center
Tue 07:07:31 PM 45.8525 -102.4467 112° Southeast 471 542 41,000  Level Salt Lake Center
Tue 07:08:33 PM 45.8086 -102.2903 111° Southeast 462 532 41,000  Level Minneapolis Center
Tue 07:09:33 PM 45.7614 -102.1186 111° Southeast 457 526 41,000  Level Minneapolis Center
Tue 07:10:33 PM 45.7158 -101.9475 113° Southeast 457 526 41,000  Level Minneapolis Center
Tue 07:11:33 PM 45.6658 -101.7789 111° Southeast 457 526 41,000  Level Minneapolis Center
Tue 07:12:33 PM 45.6197 -101.6083 111° Southeast 457 526 41,000  Level Minneapolis Center
Tue 07:13:33 PM 45.5733 -101.4381 110° East 457 526 41,000  Level Minneapolis Center
Tue 07:14:33 PM 45.5308 -101.2714 114° Southeast 452 520 41,000  Level Minneapolis Center
Tue 07:15:33 PM 45.4778 -101.1008 112° Southeast 452 520 41,000  Level Minneapolis Center
Tue 07:16:33 PM 45.4289 -100.9281 113° Southeast 457 526 41,000  Level Minneapolis Center
Tue 07:17:32 PM 45.3772 -100.7583 108° East 457 526 41,000  Level Minneapolis Center
Tue 07:18:33 PM 45.3367 -100.5783 107° East 462 532 41,000  Level Minneapolis Center
Tue 07:19:33 PM 45.2978 -100.3989 107° East 468 539 41,000  Level Minneapolis Center
Tue 07:20:33 PM 45.2603 -100.2258 103° East 468 539 41,000  Level Minneapolis Center
Tue 07:21:33 PM 45.2314 -100.0453 98° East 468 539 41,000  Level Minneapolis Center
Tue 07:22:33 PM 45.2100 -99.8389 99° East 468 539 41,000  Level Minneapolis Center
Tue 07:23:33 PM 45.1908 -99.6597 99° East 468 539 41,000  Level Minneapolis Center
Tue 07:24:33 PM 45.1714 -99.4808 98° East 463 533 41,000  Level Minneapolis Center
Tue 07:25:32 PM 45.1536 -99.3019 98° East 463 533 41,000  Level Minneapolis Center
Tue 07:26:33 PM 45.1358 -99.1233 99° East 463 533 41,000  Level Minneapolis Center
Tue 07:27:33 PM 45.1156 -98.9417 98° East 463 533 41,000  Level Minneapolis Center
Tue 07:28:33 PM 45.0972 -98.7603 97° East 463 533 41,000  Level Minneapolis Center
Tue 07:29:32 PM 45.0808 -98.5733 100° East 470 541 41,000  Level Minneapolis Center
Tue 07:30:33 PM 45.0594 -98.3950 100° East 470 541 41,000  Level Minneapolis Center
Tue 07:31:33 PM 45.0381 -98.2194 100° East 470 541 41,000  Level Minneapolis Center
Tue 07:32:32 PM 45.0161 -98.0414 99° East 465 535 41,000  Level Minneapolis Center
Tue 07:33:33 PM 44.9964 -97.8636 98° East 465 535 41,000  Level Minneapolis Center
Tue 07:34:33 PM 44.9797 -97.7006 100° East 465 535 41,000  Level Minneapolis Center
Tue 07:35:32 PM 44.9572 -97.5200 98° East 465 535 41,000  Level Minneapolis Center
Tue 07:36:33 PM 44.9386 -97.3397 99° East 465 535 41,000  Level Minneapolis Center
Tue 07:37:33 PM 44.9194 -97.1622 101° East 465 535 41,000  Level Minneapolis Center
Tue 07:38:33 PM 44.8939 -96.9847 99° East 465 535 41,000  Level Minneapolis Center
Tue 07:39:33 PM 44.8744 -96.8047 100° East 465 535 41,000  Level Minneapolis Center
Tue 07:40:33 PM 44.8489 -96.6069 100° East 465 535 41,000  Level Minneapolis Center
Tue 07:42:33 PM 44.8042 -96.2533 99° East 465 535 41,000  Level Minneapolis Center
Tue 07:43:33 PM 44.7856 -96.0800 101° East 465 535 41,000  Level Minneapolis Center
Tue 07:44:33 PM 44.7642 -95.9211 100° East 465 535 41,000  Level Minneapolis Center
Tue 07:45:33 PM 44.7408 -95.7417 101° East 465 535 41,000  Level Minneapolis Center
Tue 07:46:33 PM 44.7153 -95.5625 101° East 465 535 41,000  Level Minneapolis Center
Tue 07:47:33 PM 44.6914 -95.3864 101° East 465 535 41,000  Level Minneapolis Center
Tue 07:48:33 PM 44.6672 -95.2106 101° East 465 535 41,000  Level Minneapolis Center
Tue 07:49:32 PM 44.6408 -95.0169 101° East 465 535 41,000  Level Minneapolis Center
Tue 07:50:33 PM 44.6161 -94.8414 101° East 460 529 41,000  Level Minneapolis Center
Tue 07:51:33 PM 44.5911 -94.6689 103° East 460 529 41,000  Level Minneapolis Center
Tue 07:52:33 PM 44.5617 -94.4964 101° East 454 522 41,000  Level Minneapolis Center
Tue 07:53:33 PM 44.5381 -94.3242 101° East 454 522 41,000  Level Minneapolis Center
Tue 07:54:33 PM 44.5122 -94.1461 102° East 454 522 41,000  Level Minneapolis Center
Tue 07:55:33 PM 44.4861 -93.9714 102° East 460 529 41,000  Level Minneapolis Center
Tue 07:56:33 PM 44.4597 -93.7936 102° East 460 529 41,000  Level Minneapolis Center
Tue 07:57:33 PM 44.4331 -93.6161 103° East 465 535 41,000  Level Minneapolis Center
Tue 07:58:33 PM 44.4042 -93.4419 101° East 465 535 41,000  Level Minneapolis Center
Tue 07:59:33 PM 44.3789 -93.2675 102° East 465 535 41,000  Level Minneapolis Center
Tue 08:00:33 PM 44.3517 -93.0906 103° East 465 535 41,000  Level Minneapolis Center
Tue 08:01:33 PM 44.3239 -92.9167 102° East 465 535 41,000  Level Minneapolis Center
Tue 08:02:33 PM 44.2958 -92.7403 102° East 465 535 41,000  Level Minneapolis Center
Tue 08:03:33 PM 44.2694 -92.5694 103° East 465 535 41,000  Level Minneapolis Center
Tue 08:04:33 PM 44.2408 -92.3903 102° East 465 535 41,000  Level Minneapolis Center
Tue 08:05:33 PM 44.2164 -92.2344 103° East 465 535 41,000  Level Minneapolis Center
Tue 08:06:33 PM 44.1875 -92.0583 104° East 465 535 41,000  Level Minneapolis Center
Tue 08:07:33 PM 44.1558 -91.8856 102° East 465 535 41,000  Level Minneapolis Center
Tue 08:08:33 PM 44.1283 -91.7100 105° East 465 535 41,000  Level Minneapolis Center
Tue 08:09:33 PM 44.0919 -91.5203 103° East 460 529 41,000  Level Minneapolis Center
Tue 08:10:33 PM 44.0639 -91.3450 103° East 460 529 41,000  Level Minneapolis Center
Tue 08:12:03 PM 44.0231 -91.1047 104° East 463 533 41,000  Level Chicago Center
Tue 08:13:03 PM 43.9922 -90.9306 104° East 463 533 41,000  Level Chicago Center
Tue 08:14:03 PM 43.9572 -90.7367 104° East 463 533 41,000  Level Chicago Center
Tue 08:15:03 PM 43.9258 -90.5658 103° East 463 533 41,000  Level Chicago Center
Tue 08:16:03 PM 43.8961 -90.3894 105° East 457 526 41,000  Level Chicago Center
Tue 08:17:03 PM 43.8622 -90.2164 105° East 457 526 41,000  Level Chicago Center
Tue 08:18:03 PM 43.8300 -90.0461 105° East 457 526 41,000  Level Chicago Center
Tue 08:19:03 PM 43.7975 -89.8761 104° East 457 526 41,000  Level Chicago Center
Tue 08:20:03 PM 43.7689 -89.7233 105° East 452 520 41,000  Level Chicago Center
Tue 08:21:03 PM 43.7361 -89.5539 105° East 452 520 41,000  Level Chicago Center
Tue 08:22:03 PM 43.7028 -89.3814 105° East 457 526 41,000  Level Chicago Center
Tue 08:23:03 PM 43.6694 -89.2092 105° East 457 526 41,000  Level Chicago Center
Tue 08:24:03 PM 43.6358 -89.0372 106° East 451 519 41,000  Level Chicago Center
Tue 08:25:03 PM 43.6019 -88.8711 105° East 457 526 41,000  Level Chicago Center
Tue 08:26:03 PM 43.5697 -88.7053 105° East 457 526 41,000  Level Chicago Center
Tue 08:27:03 PM 43.5333 -88.5194 106° East 457 526 41,000  Level Chicago Center
Tue 08:28:03 PM 43.4986 -88.3569 105° East 450 518 41,000  Level Chicago Center
Tue 08:29:03 PM 43.4636 -88.1831 106° East 458 527 41,000  Level Chicago Center
Tue 08:30:03 PM 43.4306 -88.0206 107° East 451 519 41,000  Level Chicago Center
Tue 08:31:03 PM 43.3953 -87.8586 106° East 441 507 41,000  Level Chicago Center
Tue 08:32:03 PM 43.3619 -87.7022 107° East 434 499 41,000  Level Chicago Center
Tue 08:33:03 PM 43.3261 -87.5378 106° East 440 506 41,000  Level Chicago Center
Tue 08:34:03 PM 43.2922 -87.3789 105° East 440 506 41,000  Level Chicago Center
Tue 08:35:03 PM 43.2647 -87.2403 106° East 434 499 41,000  Level Chicago Center
Tue 08:36:03 PM 43.2306 -87.0761 107° East 434 499 41,000  Level Chicago Center
Tue 08:37:03 PM 43.1939 -86.9150 107° East 440 506 41,000  Level Chicago Center
Tue 08:38:03 PM 43.1544 -86.7372 107° East 440 506 41,000  Level Chicago Center
Tue 08:39:03 PM 43.1172 -86.5711 106° East 440 506 41,000  Level Chicago Center
Tue 08:40:03 PM 43.0819 -86.4078 108° East 440 506 41,000  Level Chicago Center
Tue 08:41:03 PM 43.0444 -86.2503 107° East 440 506 41,000  Level Chicago Center
Tue 08:42:03 PM 43.0064 -86.0761 106° East 451 519 41,000  Level Chicago Center
Tue 08:43:03 PM 42.9750 -85.9275 109° East 456 525 41,000  Level Chicago Center
Tue 08:44:03 PM 42.9278 -85.7458 104° East 456 525 41,000  Level Chicago Center
Tue 08:45:03 PM 42.8975 -85.5858 96° East 456 525 41,000  Level Chicago Center
Tue 08:47:28 PM 42.8644 -85.1811 98° East 445 512 41,000  Level Cleveland Center
Tue 08:48:28 PM 42.8481 -85.0156 96° East 445 512 41,000  Level Cleveland Center
Tue 08:49:28 PM 42.8356 -84.8506 98° East 445 512 41,000  Level Cleveland Center
Tue 08:50:28 PM 42.8186 -84.6878 96° East 445 512 41,000  Level Cleveland Center
Tue 08:51:28 PM 42.8056 -84.5200 98° East 440 506 41,000  Level Cleveland Center
Tue 08:52:28 PM 42.7900 -84.3606 96° East 435 501 41,000  Level Cleveland Center
Tue 08:53:28 PM 42.7781 -84.2128 98° East 425 489 41,000  Level Cleveland Center
Tue 08:54:28 PM 42.7622 -84.0533 97° East 430 495 41,000  Level Cleveland Center
Tue 08:55:28 PM 42.7483 -83.8914 99° East 430 495 41,000 -50 Level Cleveland Center
Tue 08:56:28 PM 42.7281 -83.7150 97° East 430 495 40,900  Descending Cleveland Center
Tue 08:57:28 PM 42.7139 -83.5503 98° East 430 495 41,000 50 Climbing Cleveland Center
Tue 08:58:28 PM 42.6969 -83.3914 97° East 430 495 41,000  Level Cleveland Center
Tue 08:59:28 PM 42.6819 -83.2297 98° East 430 495 41,000  Level Cleveland Center
Tue 09:00:28 PM 42.6647 -83.0681 98° East 430 495 41,000  Level Cleveland Center
Tue 09:01:30 PM 42.6492 -82.9092 98° East 424 488 41,000  Level Cleveland Center
Tue 09:02:40 PM 42.6281 -82.7167 97° East 429 494 41,000  Level Cleveland Center
Tue 09:03:40 PM 42.6122 -82.5525 99° East 429 494 41,000  Level Cleveland Center
Tue 09:04:40 PM 42.5958 -82.4081 98° East 434 499 41,000  Level Cleveland Center
Tue 09:05:40 PM 42.5775 -82.2411 98° East 434 499 41,000  Level Cleveland Center
Tue 09:06:40 PM 42.5608 -82.0772 100° East 434 499 41,000  Level Cleveland Center
Tue 09:07:40 PM 42.5400 -81.9133 98° East 434 499 41,000  Level Cleveland Center
Tue 09:08:40 PM 42.5231 -81.7494 99° East 434 499 41,000  Level Cleveland Center
Tue 09:09:40 PM 42.5036 -81.5886 98° East 434 499 41,000  Level Cleveland Center
Tue 09:10:40 PM 42.4844 -81.4108 100° East 434 499 41,000  Level Cleveland Center
Tue 09:11:40 PM 42.4625 -81.2444 99° East 434 499 41,000  Level Cleveland Center
Tue 09:12:40 PM 42.4425 -81.0811 99° East 434 499 41,000  Level Cleveland Center
Tue 09:13:40 PM 42.4222 -80.9178 99° East 434 499 41,000  Level Cleveland Center
Tue 09:14:40 PM 42.4039 -80.7547 100° East 441 507 41,000  Level Cleveland Center
Tue 09:15:40 PM 42.3831 -80.5944 100° East 441 507 41,000  Level Cleveland Center
Tue 09:16:40 PM 42.3622 -80.4314 99° East 441 507 41,000  Level Cleveland Center
Tue 09:17:40 PM 42.3431 -80.2658 100° East 436 502 41,000  Level Cleveland Center
Tue 09:18:40 PM 42.3239 -80.1197 100° East 436 502 41,000  Level Cleveland Center
Tue 09:19:40 PM 42.3022 -79.9600 100° East 441 507 41,000  Level Cleveland Center
Tue 09:20:40 PM 42.2803 -79.7975 100° East 441 507 41,000 -350 Level Cleveland Center
Tue 09:21:40 PM 42.2583 -79.6322 100° East 441 507 40,300 -850 Descending Cleveland Center
Tue 09:22:40 PM 42.2358 -79.4614 101° East 452 520 39,300 -1,000 Descending Cleveland Center
Tue 09:23:40 PM 42.2111 -79.2881 101° East 458 527 38,300 -1,000 Descending Cleveland Center
Tue 09:24:40 PM 42.1861 -79.1147 109° East 469 540 37,300 -1,000 Descending Cleveland Center
Tue 09:25:40 PM 42.1444 -78.9478 108° East 464 534 36,300 -1,000 Descending Cleveland Center
Tue 09:26:40 PM 42.1044 -78.7836 109° East 464 534 35,300 -650 Descending Cleveland Center
Tue 09:27:40 PM 42.0619 -78.6142 109° East 464 534 35,000 -150 Descending Cleveland Center
Tue 09:28:40 PM 42.0194 -78.4478 109° East 464 534 35,000  Level Cleveland Center
Tue 09:29:40 PM 41.9767 -78.2844 108° East 464 534 35,000  Level Cleveland Center
Tue 09:30:40 PM 41.9311 -78.1019 110° East 458 527 35,000 -208 Level Cleveland Center
Tue 09:32:04 PM 41.8744 -77.8908 110° East 463 533 34,500 -452 Descending New York Center
Tue 09:33:06 PM 41.8300 -77.7303 109° East 463 533 33,900 -639 Descending New York Center
Tue 09:34:06 PM 41.7875 -77.5644 109° East 463 533 33,200 -446 Descending New York Center
Tue 09:35:07 PM 41.7444 -77.4014 110° East 463 533 33,000 -101 Descending New York Center
Tue 09:36:05 PM 41.7047 -77.2531 110° East 463 533 33,000 -4,576 Level New York Center
Tue 09:37:05 PM 41.6594 -77.0903 110° East 463 533 24,000 -1,537 Descending New York Center
Tue 09:38:06 PM 41.6089 -76.9022 110° East 457 526 29,900 2,132 Climbing New York Center
Tue 09:39:06 PM 41.5650 -76.7403 110° East 457 526 28,300 -3,000 Descending New York Center
Tue 09:40:04 PM 41.5228 -76.5869 109° East 457 526 24,000 -1,664 Descending New York Center
Tue 09:41:05 PM 41.4822 -76.4311 111° Southeast 450 518 25,000  Climbing New York Center
Tue 09:42:06 PM 41.4431 -76.2922 110° East 445 512 24,000 -992 Descending New York Center
Tue 09:43:06 PM 41.4003 -76.1364 112° Southeast 437 503 23,000 -1,261 Descending New York Center
Tue 09:44:05 PM 41.3567 -75.9919 110° East 437 503 21,500 -1,450 Descending New York Center
Tue 09:45:06 PM 41.3136 -75.8339 111° Southeast 425 489 20,100 -1,279 Descending New York Center
Tue 09:46:07 PM 41.2753 -75.7014 113° Southeast 418 481 18,900 -1,780 Descending New York Center
Tue 09:47:04 PM 41.2272 -75.5517 114° Southeast 406 467 16,600 -2,492 Descending New York Center
Tue 09:48:05 PM 41.1825 -75.4189 114° Southeast 406 467 14,000 -2,380 Descending New York Center
Tue 09:49:05 PM 41.1433 -75.3033 114° Southeast 383 441 11,800 -2,000 Descending New York Center
Tue 09:50:05 PM 41.1058 -75.1933 114° Southeast 355 409 10,000 -1,934 Descending New York Center
Tue 09:51:06 PM 41.0664 -75.0781 113° Southeast 317 365 7,900 -1,884 Descending New York Center
Tue 09:52:06 PM 41.0325 -74.9742 114° Southeast 303 349 6,200 -908 Descending New York Center
Tue 09:53:05 PM 41.0025 -74.8842 100° East 298 343 6,100 -202 Descending New York Center
Tue 09:54:05 PM 40.9875 -74.7706 87° East 298 343 5,800 -550 Descending New York Center
Tue 09:55:05 PM 40.9908 -74.6719 87° East 290 334 5,000 -807 Descending New York Center
Tue 09:56:04 PM 40.9947 -74.5539 87° East 290 334 4,200 -450 Descending New York Center
Tue 09:57:05 PM 40.9978 -74.4606 88° East 290 334 4,100 -443 Descending New York Center
Tue 09:58:06 PM 41.0014 -74.3453 92° East 290 334 3,300 -645 Descending New York Center
Tue 09:58:38 PM 41.0000 -74.2833 90° East 273 314 3,100 -457 Descending New York TRACON
Tue 09:59:38 PM 41.0000 -74.1833 105° East 288 331 2,600 -550 Descending New York TRACON
Tue 10:00:38 PM 40.9833 -74.1000 131° Southeast 226 260 2,000 -400 Descending New York TRACON
Tue 10:01:38 PM 40.9500 -74.0500 180° South 172 198 1,800 -450 Descending New York TRACON
Tue 10:02:38 PM 40.9000 -74.0500 201° Southwest 134 154 1,100 -700 Descending New York TRACON
Tue 10:03:38 PM 40.8667 -74.0667 201° Southwest 129 148 400 -700 Descending New York TRACON

Login

Don't have an account? Register now (free) for customized features, flight alerts, and more!